createdAt,value
2019-03-05T00:04:01.650Z,38
2019-03-05T00:14:05.106Z,38
2019-03-05T00:24:08.543Z,39
2019-03-05T00:34:11.978Z,38
2019-03-05T00:44:15.401Z,38
2019-03-05T00:54:18.840Z,38
2019-03-05T01:04:22.283Z,38
2019-03-05T01:14:25.741Z,38
2019-03-05T01:24:29.159Z,38
2019-03-05T01:34:32.571Z,38
2019-03-05T01:44:36.009Z,39
2019-03-05T01:54:39.447Z,39
2019-03-05T02:04:42.865Z,38
2019-03-05T02:14:46.308Z,38
2019-03-05T02:24:49.742Z,38
2019-03-05T02:34:53.202Z,38
2019-03-05T02:44:56.766Z,37
2019-03-05T02:55:00.222Z,38
2019-03-05T03:05:03.687Z,38
2019-03-05T03:15:07.234Z,38
2019-03-05T03:25:10.683Z,38
2019-03-05T03:35:14.153Z,39
2019-03-05T03:45:17.599Z,38
2019-03-05T03:55:21.058Z,38
2019-03-05T04:05:24.530Z,39
2019-03-05T04:15:28.009Z,38
2019-03-05T04:25:31.467Z,37
2019-03-05T04:35:35.011Z,39
2019-03-05T04:45:38.439Z,39
2019-03-05T04:55:41.876Z,38
2019-03-05T05:05:45.314Z,39
2019-03-05T05:15:48.761Z,38
2019-03-05T05:25:52.202Z,39
2019-03-05T05:35:55.619Z,40
2019-03-05T05:45:59.117Z,40
2019-03-05T05:56:02.560Z,40
2019-03-05T06:06:06.088Z,39
2019-03-05T06:16:09.529Z,39
2019-03-05T06:26:12.964Z,39
2019-03-05T06:36:16.401Z,44
2019-03-05T06:46:19.839Z,40
2019-03-05T06:56:23.340Z,39
2019-03-05T07:06:26.802Z,39
2019-03-05T07:16:30.246Z,40
2019-03-05T07:26:34.697Z,40
2019-03-05T07:36:38.154Z,40
2019-03-05T07:46:41.574Z,41
2019-03-05T07:56:44.989Z,40
2019-03-05T08:06:48.435Z,39
2019-03-05T08:16:51.855Z,39
2019-03-05T08:26:55.278Z,40
2019-03-05T08:36:58.747Z,39
2019-03-05T08:47:02.187Z,40
2019-03-05T08:57:05.629Z,40
2019-03-05T09:07:09.055Z,39
2019-03-05T09:17:12.498Z,40
2019-03-05T09:27:15.997Z,38
2019-03-05T09:37:19.437Z,39
2019-03-05T09:47:22.877Z,39
2019-03-05T09:57:27.635Z,38
2019-03-05T10:07:31.067Z,38
2019-03-05T10:17:38.507Z,38
2019-03-05T10:27:41.959Z,38
2019-03-05T10:37:45.372Z,39
2019-03-05T10:47:48.794Z,39
2019-03-05T10:57:52.211Z,39
2019-03-05T11:07:55.659Z,39
2019-03-05T11:17:59.100Z,39
2019-03-05T11:28:02.533Z,39
2019-03-05T11:38:05.920Z,39
2019-03-05T11:48:09.413Z,39
2019-03-05T11:58:12.852Z,39
2019-03-05T12:08:16.328Z,39
2019-03-05T12:18:19.749Z,39
2019-03-05T12:28:23.212Z,39
2019-03-05T12:38:26.682Z,39
2019-03-05T12:48:40.707Z,39
2019-03-05T12:58:44.147Z,39
2019-03-05T13:08:47.603Z,39
2019-03-05T13:18:51.023Z,39
2019-03-05T13:28:54.481Z,39
2019-03-05T13:38:57.917Z,39
2019-03-05T13:49:01.366Z,39
2019-03-05T13:59:04.813Z,39
2019-03-05T14:09:09.339Z,39
2019-03-05T14:19:12.816Z,39
2019-03-05T14:29:16.337Z,39
2019-03-05T14:39:19.842Z,39
2019-03-05T14:49:23.389Z,39
2019-03-05T14:59:26.923Z,39
2019-03-05T15:09:30.483Z,39
2019-03-05T15:19:35.132Z,39
2019-03-05T15:29:38.840Z,40
2019-03-05T15:39:42.442Z,39
2019-03-05T15:49:46.074Z,39
2019-03-05T15:59:49.582Z,41
2019-03-05T16:09:53.066Z,40
2019-03-05T16:19:56.534Z,41
2019-03-05T16:30:00.006Z,41
2019-03-05T16:40:09.171Z,42
2019-03-05T16:50:13.777Z,41
2019-03-05T17:00:17.229Z,43
2019-03-05T17:10:20.711Z,42
2019-03-05T17:20:24.163Z,41
2019-03-05T17:30:27.568Z,41
2019-03-05T17:40:31.031Z,41
2019-03-05T17:50:34.446Z,41
2019-03-05T18:00:37.869Z,41
2019-03-05T18:10:41.300Z,42
2019-03-05T18:20:45.763Z,41
2019-03-05T18:30:49.215Z,41
2019-03-05T18:40:52.688Z,40
2019-03-05T18:50:56.124Z,40
2019-03-05T19:00:59.576Z,41
2019-03-05T19:11:03.459Z,40
2019-03-05T19:21:07.396Z,40
2019-03-05T19:31:10.833Z,40
2019-03-05T19:41:14.281Z,41
2019-03-05T19:51:17.767Z,41
2019-03-05T20:01:21.217Z,43
2019-03-05T20:11:24.666Z,44
2019-03-05T20:21:28.136Z,43
2019-03-05T20:31:31.603Z,42
2019-03-05T20:41:35.300Z,42
2019-03-05T20:51:38.781Z,42
2019-03-05T21:01:42.232Z,42
2019-03-05T21:11:46.260Z,45
2019-03-05T21:21:50.231Z,43
2019-03-05T21:31:53.719Z,44
2019-03-05T21:41:57.186Z,48
2019-03-05T21:52:00.674Z,45
2019-03-05T22:02:04.131Z,44
2019-03-05T22:12:07.584Z,47
2019-03-05T22:22:11.063Z,47
2019-03-05T22:32:14.522Z,44
2019-03-05T22:42:18.009Z,42
2019-03-05T22:52:21.481Z,44
2019-03-05T23:02:24.927Z,44
2019-03-05T23:12:28.373Z,43
2019-03-05T23:22:32.246Z,44
2019-03-05T23:32:36.096Z,45
2019-03-05T23:42:39.548Z,45
2019-03-05T23:52:42.999Z,44
